createdAt,value
2018-06-12T00:00:21.428Z,20.97
2018-06-12T00:02:50.512Z,20.20
2018-06-12T00:05:19.589Z,21.17
2018-06-12T00:07:48.687Z,24.83
2018-06-12T00:10:17.771Z,17.50
2018-06-12T00:12:46.881Z,16.33
2018-06-12T00:15:15.968Z,19.23
2018-06-12T00:17:45.074Z,18.90
2018-06-12T00:20:14.161Z,17.63
2018-06-12T00:22:43.264Z,15.17
2018-06-12T00:25:12.375Z,26.83
2018-06-12T00:27:41.432Z,22.47
2018-06-12T00:30:10.513Z,21.83
2018-06-12T00:32:39.612Z,19.13
2018-06-12T00:35:08.692Z,21.90
2018-06-12T00:37:37.795Z,21.63
2018-06-12T00:40:06.876Z,21.87
2018-06-12T00:42:35.994Z,20.40
2018-06-12T00:45:05.064Z,19.80
2018-06-12T00:47:34.160Z,15.87
2018-06-12T00:50:03.228Z,17.90
2018-06-12T00:52:32.316Z,19.73
2018-06-12T00:55:01.393Z,20.80
2018-06-12T00:57:30.488Z,15.53
2018-06-12T00:59:59.556Z,20.27
2018-06-12T01:02:28.652Z,14.87
2018-06-12T01:04:57.728Z,18.63
2018-06-12T01:07:26.816Z,19.40
2018-06-12T01:09:55.888Z,20.10
2018-06-12T01:12:24.992Z,30.80
2018-06-12T01:14:54.060Z,23.87
2018-06-12T01:17:23.137Z,26.30
2018-06-12T01:19:52.227Z,18.17
2018-06-12T01:22:21.304Z,19.57
2018-06-12T01:24:50.405Z,17.93
2018-06-12T01:27:19.480Z,18.47
2018-06-12T01:29:48.572Z,16.30
2018-06-12T01:32:17.640Z,17.03
2018-06-12T01:34:46.739Z,32.43
2018-06-12T01:37:15.804Z,19.60
2018-06-12T01:39:44.908Z,18.03
2018-06-12T01:42:14.000Z,16.43
2018-06-12T01:44:43.161Z,20.73
2018-06-12T01:47:12.228Z,23.70
2018-06-12T01:49:41.319Z,20.90
2018-06-12T01:52:10.396Z,18.57
2018-06-12T01:54:39.488Z,24.30
2018-06-12T01:57:08.577Z,24.10
2018-06-12T01:59:37.663Z,24.87
2018-06-12T02:02:06.735Z,22.33
2018-06-12T02:04:35.844Z,17.90
2018-06-12T02:07:04.915Z,18.87
2018-06-12T02:09:34.008Z,22.80
2018-06-12T02:12:03.082Z,20.20
2018-06-12T02:14:32.171Z,16.90
2018-06-12T02:17:01.243Z,20.87
2018-06-12T02:19:30.342Z,20.00
2018-06-12T02:21:59.420Z,18.37
2018-06-12T02:24:28.512Z,18.70
2018-06-12T02:26:57.580Z,21.77
2018-06-12T02:29:26.647Z,23.50
2018-06-12T02:31:55.748Z,20.87
2018-06-12T02:34:24.816Z,19.83
2018-06-12T02:36:53.917Z,23.43
2018-06-12T02:39:22.988Z,25.93
2018-06-12T02:41:52.084Z,28.87
2018-06-12T02:44:21.176Z,25.50
2018-06-12T02:46:50.272Z,26.70
2018-06-12T02:49:19.358Z,29.47
2018-06-12T02:51:48.441Z,29.13
2018-06-12T02:54:17.507Z,27.20
2018-06-12T02:56:46.600Z,28.80
2018-06-12T02:59:15.680Z,32.50
2018-06-12T03:01:44.785Z,28.03
2018-06-12T03:04:13.856Z,22.57
2018-06-12T03:06:42.940Z,28.60
2018-06-12T03:09:12.041Z,23.83
2018-06-12T03:11:41.141Z,20.73
2018-06-12T03:14:10.216Z,25.60
2018-06-12T03:16:39.315Z,26.57
2018-06-12T03:19:08.385Z,29.73
2018-06-12T03:21:37.488Z,23.23
2018-06-12T03:24:06.820Z,24.37
2018-06-12T03:26:35.916Z,21.80
2018-06-12T03:29:04.993Z,18.60
2018-06-12T03:31:34.092Z,21.47
2018-06-12T03:34:03.173Z,24.73
2018-06-12T03:36:32.276Z,20.30
2018-06-12T03:39:01.353Z,28.70
2018-06-12T03:41:30.974Z,17.32
2018-06-12T03:44:00.093Z,21.50
2018-06-12T03:46:29.192Z,23.47
2018-06-12T03:48:58.268Z,20.40
2018-06-12T03:51:27.396Z,19.23
2018-06-12T03:53:56.528Z,18.70
2018-06-12T03:56:25.608Z,27.73
2018-06-12T03:58:54.730Z,27.35
2018-06-12T04:01:23.809Z,22.67
2018-06-12T04:03:52.896Z,25.40
2018-06-12T04:06:23.017Z,17.20
2018-06-12T04:08:52.129Z,23.00
2018-06-12T04:11:21.204Z,18.05
2018-06-12T04:13:50.316Z,27.20
2018-06-12T04:16:19.402Z,21.00
2018-06-12T04:18:48.600Z,20.55
2018-06-12T04:21:17.685Z,19.95
2018-06-12T04:23:46.802Z,22.10
2018-06-12T04:26:15.967Z,18.32
2018-06-12T04:28:45.072Z,16.33
2018-06-12T04:31:15.184Z,21.90
2018-06-12T04:33:44.277Z,17.53
2018-06-12T04:36:13.360Z,15.50
2018-06-12T04:38:42.460Z,18.27
2018-06-12T04:41:11.567Z,17.37
2018-06-12T04:43:40.700Z,20.60
2018-06-12T04:46:09.792Z,17.03
2018-06-12T04:48:38.909Z,14.55
2018-06-12T04:51:08.008Z,17.93
2018-06-12T04:53:37.119Z,17.07
2018-06-12T04:56:06.396Z,18.82
2018-06-12T04:58:35.510Z,20.33
2018-06-12T05:01:04.612Z,21.45
2018-06-12T05:03:33.696Z,17.13
2018-06-12T05:06:02.828Z,16.47
2018-06-12T05:08:31.969Z,18.03
2018-06-12T05:11:01.081Z,27.00
2018-06-12T05:13:30.172Z,17.40
2018-06-12T05:15:59.292Z,24.63
2018-06-12T05:18:28.376Z,14.00
2018-06-12T05:20:57.488Z,16.73
2018-06-12T05:23:26.572Z,19.10
2018-06-12T05:25:55.681Z,20.37
2018-06-12T05:28:24.804Z,11.50
2018-06-12T05:30:53.989Z,15.13
2018-06-12T05:33:23.163Z,18.57
2018-06-12T05:35:52.271Z,11.63
2018-06-12T05:38:21.368Z,15.63
2018-06-12T05:40:50.530Z,19.00
2018-06-12T05:43:19.640Z,9.73
2018-06-12T05:45:48.748Z,23.73
2018-06-12T05:48:17.935Z,16.13
2018-06-12T05:50:47.040Z,17.23
2018-06-12T05:53:16.116Z,16.00
2018-06-12T05:55:45.326Z,11.70
2018-06-12T05:58:14.379Z,18.10
2018-06-12T06:00:43.504Z,16.70
2018-06-12T06:03:12.620Z,20.57
2018-06-12T06:05:41.741Z,11.83
2018-06-12T06:08:10.861Z,14.83
2018-06-12T06:10:39.976Z,18.17
2018-06-12T06:13:09.077Z,11.10
2018-06-12T06:15:38.300Z,17.37
2018-06-12T06:18:07.433Z,15.23
2018-06-12T06:20:36.532Z,8.63
2018-06-12T06:23:05.669Z,10.55
2018-06-12T06:25:34.752Z,16.32
2018-06-12T06:28:04.581Z,16.53
2018-06-12T06:30:33.664Z,15.17
2018-06-12T06:33:02.777Z,21.07
2018-06-12T06:35:31.856Z,10.70
2018-06-12T06:38:00.980Z,12.80
2018-06-12T06:40:30.073Z,15.08
2018-06-12T06:42:59.239Z,19.33
2018-06-12T06:45:28.319Z,20.62
2018-06-12T06:47:57.428Z,12.10
2018-06-12T06:50:26.506Z,7.10
2018-06-12T06:52:55.605Z,10.10
2018-06-12T06:55:24.680Z,9.97
2018-06-12T06:57:53.780Z,8.13
2018-06-12T07:00:22.844Z,30.57
2018-06-12T07:02:51.948Z,11.80
2018-06-12T07:05:21.025Z,14.50
2018-06-12T07:07:50.136Z,13.33
2018-06-12T07:10:19.220Z,11.00
2018-06-12T07:12:48.295Z,11.57
2018-06-12T07:15:17.406Z,9.63
2018-06-12T07:17:46.480Z,21.37
2018-06-12T07:21:21.887Z,14.27
2018-06-12T07:23:51.012Z,6.93
2018-06-12T07:26:20.097Z,11.13
2018-06-12T07:28:49.192Z,11.27
2018-06-12T07:31:18.280Z,11.90
2018-06-12T07:33:47.380Z,9.73
2018-06-12T07:36:16.464Z,13.47
2018-06-12T07:38:45.568Z,6.90
2018-06-12T07:41:14.653Z,15.53
2018-06-12T07:43:43.764Z,9.73
2018-06-12T07:46:12.836Z,5.33
2018-06-12T07:48:41.924Z,8.17
2018-06-12T07:51:10.994Z,7.27
2018-06-12T07:53:40.110Z,11.20
2018-06-12T07:56:09.179Z,14.17
2018-06-12T07:58:38.254Z,9.87
2018-06-12T08:01:07.341Z,19.93
2018-06-12T08:03:36.416Z,8.57
2018-06-12T08:06:05.516Z,8.80
2018-06-12T08:08:34.587Z,6.20
2018-06-12T08:11:03.680Z,18.63
2018-06-12T08:13:32.742Z,9.67
2018-06-12T08:16:01.824Z,11.47
2018-06-12T08:18:30.935Z,4.10
2018-06-12T08:20:59.993Z,10.67
2018-06-12T08:23:29.077Z,24.40
2018-06-12T08:25:58.168Z,6.90
2018-06-12T08:28:27.243Z,6.03
2018-06-12T08:30:56.334Z,6.53
2018-06-12T08:33:25.400Z,7.10
2018-06-12T08:35:54.487Z,8.23
2018-06-12T08:38:23.552Z,8.90
2018-06-12T08:40:53.481Z,13.77
2018-06-12T08:43:22.565Z,9.63
2018-06-12T08:45:51.660Z,9.20
2018-06-12T08:48:20.735Z,13.40
2018-06-12T08:50:49.837Z,6.27
2018-06-12T08:53:18.912Z,6.60
2018-06-12T08:55:48.009Z,6.60
2018-06-12T08:58:17.079Z,6.90
2018-06-12T09:00:46.216Z,6.73
2018-06-12T09:03:15.296Z,11.93
2018-06-12T09:05:44.407Z,14.77
2018-06-12T09:08:13.508Z,12.17
2018-06-12T09:10:42.580Z,7.03
2018-06-12T09:13:11.680Z,25.63
2018-06-12T09:15:40.764Z,12.23
2018-06-12T09:18:09.872Z,8.03
2018-06-12T09:20:38.940Z,7.53
2018-06-12T09:23:08.044Z,6.77
2018-06-12T09:25:37.121Z,4.33
2018-06-12T09:28:06.221Z,5.77
2018-06-12T09:30:35.298Z,10.60
2018-06-12T09:33:04.397Z,9.30
2018-06-12T09:35:33.468Z,18.23
2018-06-12T09:38:02.593Z,10.77
2018-06-12T09:40:31.669Z,4.80
2018-06-12T09:43:01.183Z,6.50
2018-06-12T09:45:30.264Z,16.50
2018-06-12T09:47:59.371Z,8.13
2018-06-12T09:50:28.444Z,14.10
2018-06-12T09:52:57.552Z,9.80
2018-06-12T09:55:26.625Z,7.90
2018-06-12T09:57:55.725Z,8.73
2018-06-12T10:00:30.120Z,10.70
2018-06-12T10:02:59.224Z,10.33
2018-06-12T10:05:28.308Z,9.97
2018-06-12T10:07:57.429Z,13.40
2018-06-12T10:10:26.493Z,9.20
2018-06-12T10:12:55.583Z,7.57
2018-06-12T10:15:24.684Z,10.50
2018-06-12T10:17:53.765Z,11.00
2018-06-12T10:20:22.871Z,10.63
2018-06-12T10:22:51.953Z,7.17
2018-06-12T10:25:21.049Z,12.07
2018-06-12T10:27:50.137Z,15.10
2018-06-12T10:30:19.240Z,17.93
2018-06-12T10:32:48.329Z,13.10
2018-06-12T10:35:17.437Z,11.13
2018-06-12T10:37:46.517Z,11.70
2018-06-12T10:40:15.703Z,19.62
2018-06-12T10:42:44.848Z,8.70
2018-06-12T10:45:13.937Z,17.53
2018-06-12T10:47:43.008Z,7.67
2018-06-12T10:50:12.097Z,9.60
2018-06-12T10:52:41.259Z,9.93
2018-06-12T10:55:10.389Z,7.43
2018-06-12T10:57:39.537Z,18.23
2018-06-12T11:00:09.612Z,11.00
2018-06-12T11:02:38.697Z,10.27
2018-06-12T11:05:07.884Z,9.43
2018-06-12T11:07:36.956Z,6.00
2018-06-12T11:10:06.101Z,9.73
2018-06-12T11:12:35.164Z,4.83
2018-06-12T11:15:04.272Z,4.73
2018-06-12T11:17:33.348Z,11.25
2018-06-12T11:20:02.453Z,11.83
2018-06-12T11:22:31.525Z,13.63
2018-06-12T11:25:00.822Z,14.30
2018-06-12T11:27:29.889Z,14.43
2018-06-12T11:29:58.956Z,9.47
2018-06-12T11:32:28.044Z,8.17
2018-06-12T11:34:57.106Z,13.68
2018-06-12T11:37:26.200Z,7.27
2018-06-12T11:39:55.277Z,9.05
2018-06-12T11:42:24.379Z,11.33
2018-06-12T11:44:53.494Z,13.60
2018-06-12T11:47:22.577Z,8.90
2018-06-12T11:49:51.652Z,18.70
2018-06-12T11:52:20.757Z,9.40
2018-06-12T11:54:49.821Z,8.57
2018-06-12T11:57:18.924Z,8.88
2018-06-12T11:59:48.005Z,13.65
2018-06-12T12:02:17.125Z,15.23
2018-06-12T12:04:46.366Z,14.73
2018-06-12T12:07:15.516Z,6.23
2018-06-12T12:09:44.545Z,7.63
2018-06-12T12:12:13.639Z,8.37
2018-06-12T12:14:42.756Z,8.63
2018-06-12T12:17:11.904Z,12.30
2018-06-12T12:19:40.973Z,5.23
2018-06-12T12:22:10.064Z,9.60
2018-06-12T12:24:39.128Z,4.73
2018-06-12T12:27:08.327Z,11.60
2018-06-12T12:29:37.413Z,10.57
2018-06-12T12:32:06.524Z,16.63
2018-06-12T12:34:35.593Z,7.43
2018-06-12T12:37:05.228Z,11.20
2018-06-12T12:39:34.321Z,7.33
2018-06-12T12:42:03.398Z,8.13
2018-06-12T12:44:32.513Z,6.53
2018-06-12T12:47:01.924Z,11.68
2018-06-12T12:49:31.016Z,6.17
2018-06-12T12:52:00.093Z,11.78
2018-06-12T12:54:29.189Z,9.73
2018-06-12T12:56:58.257Z,8.93
2018-06-12T12:59:27.356Z,10.33
2018-06-12T13:01:57.143Z,10.63
2018-06-12T13:04:26.251Z,9.60
2018-06-12T13:06:55.316Z,7.53
2018-06-12T13:09:24.415Z,9.03
2018-06-12T13:11:53.485Z,11.40
2018-06-12T13:14:22.579Z,8.00
2018-06-12T13:16:51.660Z,7.63
2018-06-12T13:19:20.793Z,7.37
2018-06-12T13:21:49.868Z,7.97
2018-06-12T13:24:18.976Z,11.13
2018-06-12T13:26:48.388Z,8.58
2018-06-12T13:29:17.492Z,9.03
2018-06-12T13:31:46.565Z,9.27
2018-06-12T13:34:15.672Z,9.13
2018-06-12T13:36:44.744Z,10.50
2018-06-12T13:39:13.840Z,7.55
2018-06-12T13:41:42.912Z,8.60
2018-06-12T13:44:12.042Z,10.63
2018-06-12T13:46:41.133Z,6.87
2018-06-12T13:49:10.232Z,7.93
2018-06-12T13:51:39.345Z,11.43
2018-06-12T13:54:08.419Z,13.00
2018-06-12T13:56:37.517Z,11.77
2018-06-12T13:59:06.600Z,11.90
2018-06-12T14:01:35.701Z,14.57
2018-06-12T14:04:04.798Z,15.88
2018-06-12T14:06:33.908Z,11.00
2018-06-12T14:09:02.997Z,11.85
2018-06-12T14:11:32.118Z,7.67
2018-06-12T14:14:01.180Z,13.57
2018-06-12T14:16:30.269Z,9.57
2018-06-12T14:18:59.335Z,10.97
2018-06-12T14:21:28.448Z,12.53
2018-06-12T14:23:57.541Z,13.20
2018-06-12T14:26:26.644Z,11.28
2018-06-12T14:28:55.720Z,9.20
2018-06-12T14:31:24.817Z,6.47
2018-06-12T14:33:54.318Z,6.70
2018-06-12T14:36:23.368Z,9.17
2018-06-12T14:38:52.432Z,8.33
2018-06-12T14:41:21.524Z,6.43
2018-06-12T14:43:50.628Z,5.17
2018-06-12T14:46:19.735Z,8.17
2018-06-12T14:48:48.964Z,4.40
2018-06-12T14:51:18.063Z,5.17
2018-06-12T14:53:47.157Z,5.37
2018-06-12T14:56:16.265Z,14.90
2018-06-12T14:58:45.389Z,5.27
2018-06-12T15:01:16.471Z,13.80
2018-06-12T15:03:45.616Z,11.93
2018-06-12T15:06:15.814Z,6.60
2018-06-12T15:08:45.511Z,12.33
2018-06-12T15:11:15.741Z,6.10
2018-06-12T15:13:45.552Z,10.70
2018-06-12T15:16:15.886Z,12.03
2018-06-12T15:18:45.040Z,11.87
2018-06-12T15:21:14.105Z,6.45
2018-06-12T15:23:43.208Z,11.13
2018-06-12T15:26:12.356Z,9.20
2018-06-12T15:28:41.472Z,5.55
2018-06-12T15:31:10.565Z,6.67
2018-06-12T15:33:41.070Z,6.22
2018-06-12T15:36:10.439Z,32.50
2018-06-12T15:38:39.551Z,8.50
2018-06-12T15:41:08.619Z,8.50
2018-06-12T15:43:37.729Z,6.07
2018-06-12T15:46:06.796Z,4.92
2018-06-12T15:48:35.880Z,6.55
2018-06-12T15:51:05.025Z,8.93
2018-06-12T15:53:34.124Z,6.28
2018-06-12T15:56:03.209Z,11.17
2018-06-12T15:58:32.291Z,8.90
2018-06-12T16:01:01.364Z,19.80
2018-06-12T16:03:30.456Z,5.87
2018-06-12T16:05:59.520Z,3.77
2018-06-12T16:08:28.625Z,6.33
2018-06-12T16:10:57.708Z,10.00
2018-06-12T16:13:27.589Z,6.13
2018-06-12T16:15:56.667Z,8.58
2018-06-12T16:18:25.752Z,10.43
2018-06-12T16:20:55.667Z,6.80
2018-06-12T16:23:25.803Z,7.70
2018-06-12T16:25:56.092Z,8.33
2018-06-12T16:28:25.648Z,7.30
2018-06-12T16:30:54.725Z,8.03
2018-06-12T16:33:23.791Z,8.30
2018-06-12T16:35:52.891Z,5.90
2018-06-12T16:38:21.962Z,7.27
2018-06-12T16:40:51.052Z,7.73
2018-06-12T16:43:20.160Z,9.55
2018-06-12T16:45:49.252Z,10.27
2018-06-12T16:48:18.347Z,9.20
2018-06-12T16:50:47.454Z,6.60
2018-06-12T16:53:16.523Z,9.30
2018-06-12T16:55:45.641Z,21.67
2018-06-12T16:58:14.804Z,15.43
2018-06-12T17:00:43.916Z,14.63
2018-06-12T17:03:13.025Z,9.67
2018-06-12T17:05:42.124Z,9.28
2018-06-12T17:08:11.199Z,11.60
2018-06-12T17:10:40.381Z,6.62
2018-06-12T17:13:09.387Z,16.43
2018-06-12T17:15:38.493Z,4.77
2018-06-12T17:18:07.708Z,8.20
2018-06-12T17:20:36.901Z,7.63
2018-06-12T17:23:05.998Z,12.93
2018-06-12T17:25:35.092Z,8.55
2018-06-12T17:28:04.199Z,4.95
2018-06-12T17:30:33.329Z,10.05
2018-06-12T17:33:02.424Z,8.27
2018-06-12T17:35:31.532Z,8.83
2018-06-12T17:38:00.603Z,6.47
2018-06-12T17:40:29.955Z,7.60
2018-06-12T17:42:59.200Z,5.30
2018-06-12T17:45:28.449Z,8.53
2018-06-12T17:47:57.700Z,10.00
2018-06-12T17:50:26.789Z,8.53
2018-06-12T17:52:55.889Z,12.53
2018-06-12T17:55:24.965Z,9.03
2018-06-12T17:57:54.075Z,5.27
2018-06-12T18:00:23.152Z,7.03
2018-06-12T18:02:52.262Z,10.90
2018-06-12T18:05:21.340Z,16.40
2018-06-12T18:07:50.679Z,8.53
2018-06-12T18:10:19.784Z,7.80
2018-06-12T18:12:48.906Z,6.17
2018-06-12T18:15:18.037Z,10.73
2018-06-12T18:17:47.129Z,11.43
2018-06-12T18:20:20.369Z,8.18
2018-06-12T18:22:49.500Z,8.43
2018-06-12T18:25:18.708Z,11.38
2018-06-12T18:27:47.809Z,11.13
2018-06-12T18:30:16.886Z,7.60
2018-06-12T18:32:45.984Z,6.27
2018-06-12T18:35:15.068Z,7.03
2018-06-12T18:37:44.176Z,5.63
2018-06-12T18:40:13.252Z,6.90
2018-06-12T18:42:42.377Z,13.37
2018-06-12T18:46:57.576Z,8.53
2018-06-12T18:49:26.766Z,7.73
2018-06-12T18:51:56.093Z,7.90
2018-06-12T18:54:25.216Z,7.90
2018-06-12T18:56:54.332Z,5.10
2018-06-12T18:59:23.608Z,8.40
2018-06-12T19:01:52.793Z,8.47
2018-06-12T19:04:22.344Z,10.45
2018-06-12T19:06:52.009Z,13.87
2018-06-12T19:09:21.838Z,11.27
2018-06-12T19:11:51.325Z,9.63
2018-06-12T19:14:20.565Z,11.10
2018-06-12T19:16:49.749Z,12.73
2018-06-12T19:19:18.916Z,15.23
2018-06-12T19:21:48.094Z,10.08
2018-06-12T19:24:17.392Z,5.63
2018-06-12T19:26:46.744Z,4.50
2018-06-12T19:29:15.824Z,12.37
2018-06-12T19:31:45.141Z,8.78
2018-06-12T19:34:14.328Z,6.50
2018-06-12T19:36:43.479Z,8.83
2018-06-12T19:39:12.632Z,5.57
2018-06-12T19:41:41.896Z,5.42
2018-06-12T19:44:11.439Z,15.90
2018-06-12T19:46:40.573Z,12.90
2018-06-12T19:49:09.756Z,10.87
2018-06-12T19:51:38.944Z,4.37
2018-06-12T19:54:08.080Z,7.37
2018-06-12T19:56:37.313Z,5.03
2018-06-12T19:59:06.508Z,10.98
2018-06-12T20:01:37.693Z,6.95
2018-06-12T20:04:06.889Z,7.83
2018-06-12T20:06:35.997Z,5.73
2018-06-12T20:09:07.544Z,4.43
2018-06-12T20:11:36.765Z,8.10
2018-06-12T20:14:05.855Z,5.77
2018-06-12T20:16:35.907Z,6.80
2018-06-12T20:19:05.101Z,4.73
2018-06-12T20:21:34.232Z,6.97
2018-06-12T20:24:03.445Z,8.83
2018-06-12T20:26:32.592Z,6.83
2018-06-12T20:29:01.741Z,4.27
2018-06-12T20:31:30.947Z,10.00
2018-06-12T20:34:00.096Z,8.80
2018-06-12T20:36:29.236Z,5.17
2018-06-12T20:38:58.376Z,8.43
2018-06-12T20:41:27.497Z,10.80
2018-06-12T20:43:56.624Z,5.17
2018-06-12T20:46:25.804Z,15.13
2018-06-12T20:48:54.885Z,19.27
2018-06-12T20:51:23.997Z,4.00
2018-06-12T20:53:53.156Z,4.50
2018-06-12T20:56:22.501Z,6.87
2018-06-12T20:58:51.617Z,3.20
2018-06-12T21:01:20.732Z,2.70
2018-06-12T21:03:49.810Z,11.00
2018-06-12T21:06:19.088Z,4.83
2018-06-12T21:08:48.173Z,4.83
2018-06-12T21:11:17.239Z,4.90
2018-06-12T21:13:46.387Z,2.10
2018-06-12T21:16:15.459Z,5.20
2018-06-12T21:18:44.553Z,3.77
2018-06-12T21:21:13.628Z,11.57
2018-06-12T21:23:42.723Z,5.03
2018-06-12T21:26:11.801Z,2.53
2018-06-12T21:28:40.887Z,8.37
2018-06-12T21:31:09.969Z,5.40
2018-06-12T21:33:39.073Z,5.30
2018-06-12T21:36:08.147Z,10.60
2018-06-12T21:38:37.244Z,5.37
2018-06-12T21:41:06.327Z,2.80
2018-06-12T21:43:35.446Z,6.63
2018-06-12T21:46:04.820Z,9.63
2018-06-12T21:48:33.912Z,4.60
2018-06-12T21:51:02.993Z,6.10
2018-06-12T21:53:32.083Z,9.30
2018-06-12T21:56:01.160Z,9.23
2018-06-12T21:58:30.256Z,10.07
2018-06-12T22:00:59.332Z,3.63
2018-06-12T22:03:28.420Z,5.97
2018-06-12T22:05:57.496Z,3.80
2018-06-12T22:08:26.609Z,4.07
2018-06-12T22:10:55.695Z,5.20
2018-06-12T22:13:24.765Z,7.30
2018-06-12T22:15:53.864Z,2.90
2018-06-12T22:18:22.941Z,4.70
2018-06-12T22:20:52.041Z,6.57
2018-06-12T22:23:21.117Z,4.70
2018-06-12T22:25:50.211Z,9.43
2018-06-12T22:28:19.294Z,7.17
2018-06-12T22:30:48.386Z,6.10
2018-06-12T22:33:17.459Z,9.60
2018-06-12T22:35:46.558Z,5.17
2018-06-12T22:38:15.643Z,5.70
2018-06-12T22:40:44.736Z,5.30
2018-06-12T22:43:13.823Z,5.40
2018-06-12T22:45:42.922Z,6.03
2018-06-12T22:48:12.027Z,6.20
2018-06-12T22:50:41.115Z,3.60
2018-06-12T22:53:10.182Z,5.13
2018-06-12T22:55:39.273Z,9.70
2018-06-12T22:58:08.337Z,7.23
2018-06-12T23:00:37.427Z,4.03
2018-06-12T23:03:06.496Z,5.37
2018-06-12T23:05:35.580Z,9.10
2018-06-12T23:08:04.733Z,6.87
2018-06-12T23:10:33.820Z,3.63
2018-06-12T23:13:02.889Z,8.63
2018-06-12T23:15:31.984Z,6.07
2018-06-12T23:18:01.057Z,6.87
2018-06-12T23:20:41.548Z,5.40
2018-06-12T23:23:10.620Z,13.80
2018-06-12T23:25:39.712Z,5.47
2018-06-12T23:28:08.785Z,5.63
2018-06-12T23:30:37.872Z,10.70
2018-06-12T23:33:06.945Z,6.70
2018-06-12T23:35:36.033Z,13.80
2018-06-12T23:38:05.130Z,5.50
2018-06-12T23:40:34.184Z,5.70
2018-06-12T23:43:03.297Z,8.97
2018-06-12T23:45:32.368Z,6.80
2018-06-12T23:48:01.456Z,9.27
2018-06-12T23:50:30.524Z,7.30
2018-06-12T23:52:59.620Z,6.87
2018-06-12T23:55:28.699Z,5.83
2018-06-12T23:57:57.792Z,6.33
